sensor_id;sensor_type;location;lat;lon;timestamp;temperature;humidity
22765;DHT22;11549;50.852;3.816;2024-03-23T00:56:16;8.80;99.90
22765;DHT22;11549;50.852;3.816;2024-03-23T00:58:43;8.70;99.90
22765;DHT22;11549;50.852;3.816;2024-03-23T01:01:10;8.90;99.90
22765;DHT22;11549;50.852;3.816;2024-03-23T01:03:37;8.80;99.90
22765;DHT22;11549;50.852;3.816;2024-03-23T01:06:04;8.90;99.90
22765;DHT22;11549;50.852;3.816;2024-03-23T01:08:31;8.90;99.90
22765;DHT22;11549;50.852;3.816;2024-03-23T01:10:58;8.90;99.90
22765;DHT22;11549;50.852;3.816;2024-03-23T01:13:28;9.00;99.90
22765;DHT22;11549;50.852;3.816;2024-03-23T01:15:55;9.00;99.90
22765;DHT22;11549;50.852;3.816;2024-03-23T01:18:23;9.00;99.90
22765;DHT22;11549;50.852;3.816;2024-03-23T01:20:50;8.90;99.90
22765;DHT22;11549;50.852;3.816;2024-03-23T01:23:17;9.00;99.90
22765;DHT22;11549;50.852;3.816;2024-03-23T01:25:44;8.90;99.90
22765;DHT22;11549;50.852;3.816;2024-03-23T01:28:18;8.80;99.90
22765;DHT22;11549;50.852;3.816;2024-03-23T01:30:46;8.90;99.90
22765;DHT22;11549;50.852;3.816;2024-03-23T01:33:14;8.90;99.90
22765;DHT22;11549;50.852;3.816;2024-03-23T01:35:41;8.90;99.90
22765;DHT22;11549;50.852;3.816;2024-03-23T01:38:08;8.90;99.90
22765;DHT22;11549;50.852;3.816;2024-03-23T01:40:34;9.00;99.90
22765;DHT22;11549;50.852;3.816;2024-03-23T01:43:04;9.00;99.90
22765;DHT22;11549;50.852;3.816;2024-03-23T01:45:30;9.10;99.90
22765;DHT22;11549;50.852;3.816;2024-03-23T01:48:00;9.10;99.90
22765;DHT22;11549;50.852;3.816;2024-03-23T01:50:27;9.00;99.90
22765;DHT22;11549;50.852;3.816;2024-03-23T01:52:54;9.00;99.90
22765;DHT22;11549;50.852;3.816;2024-03-23T01:55:21;8.90;99.90
22765;DHT22;11549;50.852;3.816;2024-03-23T01:57:49;9.00;99.90
22765;DHT22;11549;50.852;3.816;2024-03-23T02:00:16;8.90;99.90
22765;DHT22;11549;50.852;3.816;2024-03-23T02:02:43;8.90;99.90
22765;DHT22;11549;50.852;3.816;2024-03-23T02:05:12;9.00;99.90
22765;DHT22;11549;50.852;3.816;2024-03-23T02:07:40;8.90;99.90
22765;DHT22;11549;50.852;3.816;2024-03-23T02:10:06;9.00;99.90
22765;DHT22;11549;50.852;3.816;2024-03-23T02:12:36;8.90;99.90
22765;DHT22;11549;50.852;3.816;2024-03-23T02:15:03;8.90;99.90
22765;DHT22;11549;50.852;3.816;2024-03-23T02:17:32;8.90;99.90
22765;DHT22;11549;50.852;3.816;2024-03-23T02:19:59;8.90;99.90
22765;DHT22;11549;50.852;3.816;2024-03-23T02:22:36;8.80;99.90
22765;DHT22;11549;50.852;3.816;2024-03-23T02:25:04;8.90;99.90
22765;DHT22;11549;50.852;3.816;2024-03-23T02:27:32;8.80;99.90
22765;DHT22;11549;50.852;3.816;2024-03-23T02:29:59;8.70;99.90
22765;DHT22;11549;50.852;3.816;2024-03-23T02:32:26;8.70;99.90
22765;DHT22;11549;50.852;3.816;2024-03-23T02:34:53;8.70;99.90
22765;DHT22;11549;50.852;3.816;2024-03-23T02:37:20;8.70;99.90
22765;DHT22;11549;50.852;3.816;2024-03-23T02:39:46;8.70;99.90
22765;DHT22;11549;50.852;3.816;2024-03-23T02:42:15;8.70;99.90
22765;DHT22;11549;50.852;3.816;2024-03-23T02:44:44;8.70;99.90
22765;DHT22;11549;50.852;3.816;2024-03-23T02:47:11;8.80;99.90
22765;DHT22;11549;50.852;3.816;2024-03-23T02:49:38;8.80;99.90
22765;DHT22;11549;50.852;3.816;2024-03-23T02:52:05;8.70;99.90
22765;DHT22;11549;50.852;3.816;2024-03-23T02:54:32;8.80;99.90
22765;DHT22;11549;50.852;3.816;2024-03-23T02:56:59;8.70;99.90
22765;DHT22;11549;50.852;3.816;2024-03-23T02:59:27;8.70;99.90
22765;DHT22;11549;50.852;3.816;2024-03-23T03:01:54;8.80;99.90
22765;DHT22;11549;50.852;3.816;2024-03-23T03:04:22;8.70;99.90
22765;DHT22;11549;50.852;3.816;2024-03-23T03:06:49;8.70;99.90
22765;DHT22;11549;50.852;3.816;2024-03-23T03:09:15;8.80;99.90
22765;DHT22;11549;50.852;3.816;2024-03-23T03:11:43;8.80;99.90
22765;DHT22;11549;50.852;3.816;2024-03-23T03:14:09;8.80;99.90
22765;DHT22;11549;50.852;3.816;2024-03-23T03:16:38;8.70;99.90
22765;DHT22;11549;50.852;3.816;2024-03-23T03:19:04;8.70;99.90
22765;DHT22;11549;50.852;3.816;2024-03-23T03:21:32;8.70;99.90
22765;DHT22;11549;50.852;3.816;2024-03-23T03:23:58;8.70;99.90
22765;DHT22;11549;50.852;3.816;2024-03-23T03:26:25;8.60;99.90
22765;DHT22;11549;50.852;3.816;2024-03-23T03:28:51;8.50;99.90
22765;DHT22;11549;50.852;3.816;2024-03-23T03:31:19;8.40;99.90
22765;DHT22;11549;50.852;3.816;2024-03-23T03:33:47;8.40;99.90
22765;DHT22;11549;50.852;3.816;2024-03-23T03:36:16;8.40;99.90
22765;DHT22;11549;50.852;3.816;2024-03-23T03:38:43;8.50;99.90
22765;DHT22;11549;50.852;3.816;2024-03-23T03:41:10;8.50;99.90
22765;DHT22;11549;50.852;3.816;2024-03-23T03:43:36;8.40;99.90
22765;DHT22;11549;50.852;3.816;2024-03-23T03:46:04;8.40;99.90
22765;DHT22;11549;50.852;3.816;2024-03-23T03:48:30;8.30;99.90
22765;DHT22;11549;50.852;3.816;2024-03-23T03:50:59;8.30;99.90
22765;DHT22;11549;50.852;3.816;2024-03-23T03:53:26;8.30;99.90
22765;DHT22;11549;50.852;3.816;2024-03-23T03:55:53;8.40;99.90
22765;DHT22;11549;50.852;3.816;2024-03-23T03:58:19;8.50;99.90
22765;DHT22;11549;50.852;3.816;2024-03-23T04:00:47;8.50;99.90
22765;DHT22;11549;50.852;3.816;2024-03-23T04:03:13;8.40;99.90
22765;DHT22;11549;50.852;3.816;2024-03-23T04:05:40;8.50;99.90
22765;DHT22;11549;50.852;3.816;2024-03-23T04:08:08;8.50;99.90
22765;DHT22;11549;50.852;3.816;2024-03-23T04:10:35;8.40;99.90
22765;DHT22;11549;50.852;3.816;2024-03-23T04:13:02;8.30;99.90
22765;DHT22;11549;50.852;3.816;2024-03-23T04:15:31;8.30;99.90
22765;DHT22;11549;50.852;3.816;2024-03-23T04:17:57;8.20;99.90
22765;DHT22;11549;50.852;3.816;2024-03-23T04:20:24;8.30;99.90
22765;DHT22;11549;50.852;3.816;2024-03-23T04:22:50;8.20;99.90
22765;DHT22;11549;50.852;3.816;2024-03-23T04:25:19;8.20;99.90
22765;DHT22;11549;50.852;3.816;2024-03-23T04:27:45;8.20;99.90
22765;DHT22;11549;50.852;3.816;2024-03-23T04:30:13;8.20;99.90
22765;DHT22;11549;50.852;3.816;2024-03-23T04:32:41;8.10;99.90
22765;DHT22;11549;50.852;3.816;2024-03-23T04:35:08;8.10;99.90
22765;DHT22;11549;50.852;3.816;2024-03-23T04:37:36;8.10;99.90
22765;DHT22;11549;50.852;3.816;2024-03-23T04:40:04;8.10;99.90
22765;DHT22;11549;50.852;3.816;2024-03-23T04:42:33;8.00;99.90
22765;DHT22;11549;50.852;3.816;2024-03-23T04:45:00;8.10;99.90
22765;DHT22;11549;50.852;3.816;2024-03-23T04:47:28;8.00;99.90
22765;DHT22;11549;50.852;3.816;2024-03-23T04:49:55;8.00;99.90
22765;DHT22;11549;50.852;3.816;2024-03-23T04:52:23;8.00;99.90
22765;DHT22;11549;50.852;3.816;2024-03-23T04:54:50;8.10;99.90
22765;DHT22;11549;50.852;3.816;2024-03-23T04:57:17;8.10;99.90
22765;DHT22;11549;50.852;3.816;2024-03-23T04:59:45;8.10;99.90
22765;DHT22;11549;50.852;3.816;2024-03-23T05:02:13;8.10;99.90
22765;DHT22;11549;50.852;3.816;2024-03-23T05:04:40;8.00;99.90
22765;DHT22;11549;50.852;3.816;2024-03-23T05:07:07;7.90;99.90
22765;DHT22;11549;50.852;3.816;2024-03-23T05:09:34;8.00;99.90
22765;DHT22;11549;50.852;3.816;2024-03-23T05:12:00;7.80;99.90
22765;DHT22;11549;50.852;3.816;2024-03-23T05:14:28;7.80;99.90
22765;DHT22;11549;50.852;3.816;2024-03-23T05:16:56;7.80;99.90
22765;DHT22;11549;50.852;3.816;2024-03-23T05:19:23;7.70;99.90
22765;DHT22;11549;50.852;3.816;2024-03-23T05:21:51;7.80;99.90
22765;DHT22;11549;50.852;3.816;2024-03-23T05:24:19;7.70;99.90
22765;DHT22;11549;50.852;3.816;2024-03-23T05:26:46;7.70;99.90
22765;DHT22;11549;50.852;3.816;2024-03-23T05:29:12;7.60;99.90
22765;DHT22;11549;50.852;3.816;2024-03-23T05:31:40;7.60;99.90
22765;DHT22;11549;50.852;3.816;2024-03-23T05:34:09;7.50;99.90
22765;DHT22;11549;50.852;3.816;2024-03-23T05:36:36;7.60;99.90
22765;DHT22;11549;50.852;3.816;2024-03-23T05:39:03;7.60;99.90
22765;DHT22;11549;50.852;3.816;2024-03-23T05:41:30;7.70;99.90
22765;DHT22;11549;50.852;3.816;2024-03-23T05:43:57;7.60;99.90
22765;DHT22;11549;50.852;3.816;2024-03-23T05:46:24;7.50;99.90
22765;DHT22;11549;50.852;3.816;2024-03-23T05:48:51;7.50;99.90
22765;DHT22;11549;50.852;3.816;2024-03-23T05:51:20;7.50;99.90
22765;DHT22;11549;50.852;3.816;2024-03-23T05:53:46;7.50;99.90
22765;DHT22;11549;50.852;3.816;2024-03-23T05:56:14;7.60;99.90
22765;DHT22;11549;50.852;3.816;2024-03-23T05:58:41;7.60;99.90
22765;DHT22;11549;50.852;3.816;2024-03-23T06:01:08;7.50;99.90
22765;DHT22;11549;50.852;3.816;2024-03-23T06:03:36;7.40;99.90
22765;DHT22;11549;50.852;3.816;2024-03-23T06:06:04;7.40;99.90
22765;DHT22;11549;50.852;3.816;2024-03-23T06:08:31;7.40;99.90
22765;DHT22;11549;50.852;3.816;2024-03-23T06:10:59;7.40;99.90
22765;DHT22;11549;50.852;3.816;2024-03-23T06:13:25;7.40;99.90
22765;DHT22;11549;50.852;3.816;2024-03-23T06:15:55;7.30;99.90
22765;DHT22;11549;50.852;3.816;2024-03-23T06:18:22;7.30;99.90
22765;DHT22;11549;50.852;3.816;2024-03-23T06:20:49;7.30;99.90
22765;DHT22;11549;50.852;3.816;2024-03-23T06:23:15;7.40;99.90
22765;DHT22;11549;50.852;3.816;2024-03-23T06:25:47;7.40;99.90
22765;DHT22;11549;50.852;3.816;2024-03-23T06:28:13;7.50;99.90
22765;DHT22;11549;50.852;3.816;2024-03-23T06:30:41;7.60;99.90
22765;DHT22;11549;50.852;3.816;2024-03-23T06:33:07;7.60;99.90
22765;DHT22;11549;50.852;3.816;2024-03-23T06:35:34;7.50;99.90
22765;DHT22;11549;50.852;3.816;2024-03-23T06:38:01;7.50;99.90
22765;DHT22;11549;50.852;3.816;2024-03-23T06:40:28;7.50;99.90
22765;DHT22;11549;50.852;3.816;2024-03-23T06:42:56;7.60;99.90
22765;DHT22;11549;50.852;3.816;2024-03-23T06:45:23;7.50;99.90
22765;DHT22;11549;50.852;3.816;2024-03-23T06:47:50;7.50;99.90
22765;DHT22;11549;50.852;3.816;2024-03-23T06:50:18;7.50;99.90
22765;DHT22;11549;50.852;3.816;2024-03-23T06:52:44;7.50;99.90
22765;DHT22;11549;50.852;3.816;2024-03-23T06:55:11;7.80;99.90
22765;DHT22;11549;50.852;3.816;2024-03-23T06:57:39;8.30;99.90
22765;DHT22;11549;50.852;3.816;2024-03-23T07:00:07;8.80;99.90
22765;DHT22;11549;50.852;3.816;2024-03-23T07:02:36;9.20;99.90
22765;DHT22;11549;50.852;3.816;2024-03-23T07:05:02;9.60;99.90
22765;DHT22;11549;50.852;3.816;2024-03-23T07:07:30;9.80;99.90
22765;DHT22;11549;50.852;3.816;2024-03-23T07:09:56;10.10;99.90
22765;DHT22;11549;50.852;3.816;2024-03-23T07:12:23;10.40;99.90
22765;DHT22;11549;50.852;3.816;2024-03-23T07:14:50;10.40;99.90
22765;DHT22;11549;50.852;3.816;2024-03-23T07:17:19;10.50;99.90
22765;DHT22;11549;50.852;3.816;2024-03-23T07:19:46;10.80;99.90
22765;DHT22;11549;50.852;3.816;2024-03-23T07:22:13;11.00;99.90
22765;DHT22;11549;50.852;3.816;2024-03-23T07:24:40;11.20;99.90
22765;DHT22;11549;50.852;3.816;2024-03-23T07:27:09;11.20;99.90
22765;DHT22;11549;50.852;3.816;2024-03-23T07:29:35;11.30;99.90
22765;DHT22;11549;50.852;3.816;2024-03-23T07:32:04;11.20;99.90
22765;DHT22;11549;50.852;3.816;2024-03-23T07:34:32;11.00;99.90
22765;DHT22;11549;50.852;3.816;2024-03-23T07:36:59;10.60;99.90
22765;DHT22;11549;50.852;3.816;2024-03-23T07:39:26;10.40;99.90
22765;DHT22;11549;50.852;3.816;2024-03-23T07:41:53;10.30;99.90
22765;DHT22;11549;50.852;3.816;2024-03-23T07:44:20;10.60;99.90
22765;DHT22;11549;50.852;3.816;2024-03-23T07:46:47;10.70;99.90
22765;DHT22;11549;50.852;3.816;2024-03-23T07:49:13;10.90;99.90
22765;DHT22;11549;50.852;3.816;2024-03-23T07:51:42;10.90;99.90
22765;DHT22;11549;50.852;3.816;2024-03-23T07:54:09;11.20;99.90
22765;DHT22;11549;50.852;3.816;2024-03-23T07:56:36;11.50;99.90
22765;DHT22;11549;50.852;3.816;2024-03-23T07:59:02;11.60;99.90
22765;DHT22;11549;50.852;3.816;2024-03-23T08:01:30;11.50;99.90
22765;DHT22;11549;50.852;3.816;2024-03-23T08:03:56;11.60;99.90
22765;DHT22;11549;50.852;3.816;2024-03-23T08:06:23;11.70;99.90
22765;DHT22;11549;50.852;3.816;2024-03-23T08:08:54;11.90;99.90
22765;DHT22;11549;50.852;3.816;2024-03-23T08:11:26;12.20;99.90
22765;DHT22;11549;50.852;3.816;2024-03-23T08:13:53;12.40;99.90
22765;DHT22;11549;50.852;3.816;2024-03-23T08:16:21;12.70;99.90
22765;DHT22;11549;50.852;3.816;2024-03-23T08:18:47;12.80;99.90
22765;DHT22;11549;50.852;3.816;2024-03-23T08:21:15;12.70;99.90
22765;DHT22;11549;50.852;3.816;2024-03-23T08:23:41;12.50;99.90
22765;DHT22;11549;50.852;3.816;2024-03-23T08:26:12;12.80;99.90
22765;DHT22;11549;50.852;3.816;2024-03-23T08:28:39;13.00;99.90
22765;DHT22;11549;50.852;3.816;2024-03-23T08:31:08;12.90;99.90
22765;DHT22;11549;50.852;3.816;2024-03-23T08:33:35;13.20;99.90
22765;DHT22;11549;50.852;3.816;2024-03-23T08:36:04;13.10;99.90
22765;DHT22;11549;50.852;3.816;2024-03-23T08:38:31;13.00;99.90
22765;DHT22;11549;50.852;3.816;2024-03-23T08:40:59;12.60;99.90
22765;DHT22;11549;50.852;3.816;2024-03-23T08:43:27;12.40;99.90
22765;DHT22;11549;50.852;3.816;2024-03-23T08:46:03;12.20;99.90
22765;DHT22;11549;50.852;3.816;2024-03-23T08:48:30;11.90;99.90
22765;DHT22;11549;50.852;3.816;2024-03-23T08:51:01;11.80;99.90
22765;DHT22;11549;50.852;3.816;2024-03-23T08:53:28;11.60;99.90
22765;DHT22;11549;50.852;3.816;2024-03-23T08:55:56;11.80;99.90
22765;DHT22;11549;50.852;3.816;2024-03-23T08:58:24;11.90;99.90
22765;DHT22;11549;50.852;3.816;2024-03-23T09:00:53;11.70;99.90
22765;DHT22;11549;50.852;3.816;2024-03-23T09:03:22;11.70;99.90
22765;DHT22;11549;50.852;3.816;2024-03-23T09:05:50;11.50;99.90
22765;DHT22;11549;50.852;3.816;2024-03-23T09:08:17;11.40;99.90
22765;DHT22;11549;50.852;3.816;2024-03-23T09:10:45;11.40;99.90
22765;DHT22;11549;50.852;3.816;2024-03-23T09:13:11;11.40;99.90
22765;DHT22;11549;50.852;3.816;2024-03-23T09:15:46;11.40;99.90
22765;DHT22;11549;50.852;3.816;2024-03-23T09:18:14;11.60;99.90
22765;DHT22;11549;50.852;3.816;2024-03-23T09:20:41;11.80;99.90
22765;DHT22;11549;50.852;3.816;2024-03-23T09:23:08;11.80;99.90
22765;DHT22;11549;50.852;3.816;2024-03-23T09:25:39;11.90;99.90
22765;DHT22;11549;50.852;3.816;2024-03-23T09:28:06;11.80;99.90
22765;DHT22;11549;50.852;3.816;2024-03-23T09:30:35;11.50;99.90
22765;DHT22;11549;50.852;3.816;2024-03-23T09:33:02;11.40;99.90
22765;DHT22;11549;50.852;3.816;2024-03-23T09:35:31;11.60;99.90
22765;DHT22;11549;50.852;3.816;2024-03-23T09:37:57;11.90;99.90
22765;DHT22;11549;50.852;3.816;2024-03-23T09:40:24;12.10;99.90
22765;DHT22;11549;50.852;3.816;2024-03-23T09:42:51;12.10;99.90
22765;DHT22;11549;50.852;3.816;2024-03-23T09:45:22;12.40;99.90
22765;DHT22;11549;50.852;3.816;2024-03-23T09:47:48;12.70;99.90
22765;DHT22;11549;50.852;3.816;2024-03-23T09:50:17;12.90;99.90
22765;DHT22;11549;50.852;3.816;2024-03-23T09:52:45;13.00;99.90
22765;DHT22;11549;50.852;3.816;2024-03-23T09:55:13;13.30;99.90
22765;DHT22;11549;50.852;3.816;2024-03-23T09:57:40;13.50;99.90
22765;DHT22;11549;50.852;3.816;2024-03-23T10:00:08;13.50;99.90
22765;DHT22;11549;50.852;3.816;2024-03-23T10:02:35;13.60;99.90
22765;DHT22;11549;50.852;3.816;2024-03-23T10:05:03;13.40;99.90
22765;DHT22;11549;50.852;3.816;2024-03-23T10:07:30;13.00;99.90
22765;DHT22;11549;50.852;3.816;2024-03-23T10:09:59;12.60;99.90
22765;DHT22;11549;50.852;3.816;2024-03-23T10:12:44;12.70;99.90
22765;DHT22;11549;50.852;3.816;2024-03-23T10:15:18;13.00;99.90
22765;DHT22;11549;50.852;3.816;2024-03-23T10:17:45;12.90;99.90
22765;DHT22;11549;50.852;3.816;2024-03-23T10:20:12;12.80;99.90
22765;DHT22;11549;50.852;3.816;2024-03-23T10:22:39;12.80;99.90
22765;DHT22;11549;50.852;3.816;2024-03-23T10:25:09;12.70;99.90
22765;DHT22;11549;50.852;3.816;2024-03-23T10:27:36;12.60;99.90
22765;DHT22;11549;50.852;3.816;2024-03-23T10:30:11;12.60;99.90
22765;DHT22;11549;50.852;3.816;2024-03-23T10:32:38;12.60;99.90
22765;DHT22;11549;50.852;3.816;2024-03-23T10:35:16;12.60;99.90
22765;DHT22;11549;50.852;3.816;2024-03-23T10:37:45;12.40;99.90
22765;DHT22;11549;50.852;3.816;2024-03-23T10:40:16;12.10;99.90
22765;DHT22;11549;50.852;3.816;2024-03-23T10:42:44;11.90;99.90
22765;DHT22;11549;50.852;3.816;2024-03-23T10:45:11;12.00;99.90
22765;DHT22;11549;50.852;3.816;2024-03-23T10:47:38;12.10;99.90
22765;DHT22;11549;50.852;3.816;2024-03-23T10:50:06;12.00;99.90
22765;DHT22;11549;50.852;3.816;2024-03-23T10:52:33;12.00;99.90
22765;DHT22;11549;50.852;3.816;2024-03-23T10:55:02;11.90;99.90
22765;DHT22;11549;50.852;3.816;2024-03-23T10:57:36;11.80;99.90
22765;DHT22;11549;50.852;3.816;2024-03-23T11:00:05;11.80;99.90
22765;DHT22;11549;50.852;3.816;2024-03-23T11:02:32;11.70;99.90
22765;DHT22;11549;50.852;3.816;2024-03-23T11:04:59;11.80;99.90
22765;DHT22;11549;50.852;3.816;2024-03-23T11:07:30;11.70;99.90
22765;DHT22;11549;50.852;3.816;2024-03-23T11:09:58;12.00;99.90
22765;DHT22;11549;50.852;3.816;2024-03-23T11:12:31;12.20;99.90
22765;DHT22;11549;50.852;3.816;2024-03-23T11:15:04;12.20;99.90
22765;DHT22;11549;50.852;3.816;2024-03-23T11:17:32;12.30;99.90
22765;DHT22;11549;50.852;3.816;2024-03-23T11:19:59;12.70;99.90
22765;DHT22;11549;50.852;3.816;2024-03-23T11:22:40;13.30;99.90
22765;DHT22;11549;50.852;3.816;2024-03-23T11:25:17;13.70;99.90
22765;DHT22;11549;50.852;3.816;2024-03-23T11:27:49;13.70;99.90
22765;DHT22;11549;50.852;3.816;2024-03-23T11:30:17;13.40;99.90
22765;DHT22;11549;50.852;3.816;2024-03-23T11:32:46;13.00;99.90
22765;DHT22;11549;50.852;3.816;2024-03-23T11:35:26;12.60;99.90
22765;DHT22;11549;50.852;3.816;2024-03-23T11:38:06;11.90;99.90
22765;DHT22;11549;50.852;3.816;2024-03-23T11:40:34;11.30;99.90
22765;DHT22;11549;50.852;3.816;2024-03-23T11:43:04;10.80;99.90
22765;DHT22;11549;50.852;3.816;2024-03-23T11:45:34;10.70;99.90
22765;DHT22;11549;50.852;3.816;2024-03-23T11:48:07;10.70;99.90
22765;DHT22;11549;50.852;3.816;2024-03-23T11:50:35;10.70;99.90
22765;DHT22;11549;50.852;3.816;2024-03-23T11:53:14;11.00;99.90
22765;DHT22;11549;50.852;3.816;2024-03-23T11:55:46;11.50;99.90
22765;DHT22;11549;50.852;3.816;2024-03-23T11:58:16;12.00;99.90
22765;DHT22;11549;50.852;3.816;2024-03-23T12:00:49;12.30;99.90
22765;DHT22;11549;50.852;3.816;2024-03-23T12:03:17;12.70;99.90
22765;DHT22;11549;50.852;3.816;2024-03-23T12:05:48;13.10;99.90
22765;DHT22;11549;50.852;3.816;2024-03-23T12:08:29;13.30;99.90
22765;DHT22;11549;50.852;3.816;2024-03-23T12:11:05;13.60;99.90
22765;DHT22;11549;50.852;3.816;2024-03-23T12:13:34;13.80;99.90
22765;DHT22;11549;50.852;3.816;2024-03-23T12:16:09;14.10;99.90
22765;DHT22;11549;50.852;3.816;2024-03-23T12:18:37;14.30;99.90
22765;DHT22;11549;50.852;3.816;2024-03-23T12:21:04;14.10;99.90
22765;DHT22;11549;50.852;3.816;2024-03-23T12:23:32;13.90;99.90
22765;DHT22;11549;50.852;3.816;2024-03-23T12:25:58;13.80;99.90
22765;DHT22;11549;50.852;3.816;2024-03-23T12:28:26;13.90;99.90
22765;DHT22;11549;50.852;3.816;2024-03-23T12:30:54;14.20;99.90
22765;DHT22;11549;50.852;3.816;2024-03-23T12:33:21;14.30;99.90
22765;DHT22;11549;50.852;3.816;2024-03-23T12:35:48;14.60;99.90
22765;DHT22;11549;50.852;3.816;2024-03-23T12:38:16;14.60;99.90
22765;DHT22;11549;50.852;3.816;2024-03-23T12:40:46;14.50;99.90
22765;DHT22;11549;50.852;3.816;2024-03-23T12:43:15;14.70;99.90
22765;DHT22;11549;50.852;3.816;2024-03-23T12:45:42;14.70;99.90
22765;DHT22;11549;50.852;3.816;2024-03-23T12:48:14;14.60;99.90
22765;DHT22;11549;50.852;3.816;2024-03-23T12:50:41;14.40;99.90
22765;DHT22;11549;50.852;3.816;2024-03-23T12:53:08;14.40;99.90
22765;DHT22;11549;50.852;3.816;2024-03-23T12:55:35;14.30;99.90
22765;DHT22;11549;50.852;3.816;2024-03-23T12:58:02;14.60;99.90
22765;DHT22;11549;50.852;3.816;2024-03-23T13:00:29;14.50;99.90
22765;DHT22;11549;50.852;3.816;2024-03-23T13:02:56;14.40;99.90
22765;DHT22;11549;50.852;3.816;2024-03-23T13:05:24;14.30;99.90
22765;DHT22;11549;50.852;3.816;2024-03-23T13:07:51;14.30;99.90
22765;DHT22;11549;50.852;3.816;2024-03-23T13:10:17;14.40;99.90
22765;DHT22;11549;50.852;3.816;2024-03-23T13:12:45;14.30;99.90
22765;DHT22;11549;50.852;3.816;2024-03-23T13:15:11;14.00;99.90
22765;DHT22;11549;50.852;3.816;2024-03-23T13:17:42;14.00;99.90
22765;DHT22;11549;50.852;3.816;2024-03-23T13:20:09;14.00;99.90
22765;DHT22;11549;50.852;3.816;2024-03-23T13:22:42;13.70;99.90
22765;DHT22;11549;50.852;3.816;2024-03-23T13:25:08;13.60;99.90
22765;DHT22;11549;50.852;3.816;2024-03-23T13:27:36;13.20;99.90
22765;DHT22;11549;50.852;3.816;2024-03-23T13:30:02;13.00;99.90
22765;DHT22;11549;50.852;3.816;2024-03-23T13:32:30;12.70;99.90
22765;DHT22;11549;50.852;3.816;2024-03-23T13:34:58;12.70;99.90
22765;DHT22;11549;50.852;3.816;2024-03-23T13:37:25;12.60;99.90
22765;DHT22;11549;50.852;3.816;2024-03-23T13:39:53;12.70;99.90
22765;DHT22;11549;50.852;3.816;2024-03-23T13:42:21;12.80;99.90
22765;DHT22;11549;50.852;3.816;2024-03-23T13:44:51;13.00;99.90
22765;DHT22;11549;50.852;3.816;2024-03-23T13:47:18;13.20;99.90
22765;DHT22;11549;50.852;3.816;2024-03-23T13:49:45;13.30;99.90
22765;DHT22;11549;50.852;3.816;2024-03-23T13:52:12;13.40;99.90
22765;DHT22;11549;50.852;3.816;2024-03-23T13:54:38;13.50;99.90
22765;DHT22;11549;50.852;3.816;2024-03-23T13:57:12;13.50;99.90
22765;DHT22;11549;50.852;3.816;2024-03-23T13:59:39;13.40;99.90
22765;DHT22;11549;50.852;3.816;2024-03-23T14:02:06;13.20;99.90
22765;DHT22;11549;50.852;3.816;2024-03-23T14:04:33;12.90;99.90
22765;DHT22;11549;50.852;3.816;2024-03-23T14:07:00;12.80;99.90
22765;DHT22;11549;50.852;3.816;2024-03-23T14:09:27;12.70;99.90
22765;DHT22;11549;50.852;3.816;2024-03-23T14:11:55;12.80;99.90
22765;DHT22;11549;50.852;3.816;2024-03-23T14:14:23;13.00;99.90
22765;DHT22;11549;50.852;3.816;2024-03-23T14:16:50;13.10;99.90
22765;DHT22;11549;50.852;3.816;2024-03-23T14:19:17;13.30;99.90
22765;DHT22;11549;50.852;3.816;2024-03-23T14:21:45;13.50;99.90
22765;DHT22;11549;50.852;3.816;2024-03-23T14:24:12;13.40;99.90
22765;DHT22;11549;50.852;3.816;2024-03-23T14:26:39;13.40;99.90
22765;DHT22;11549;50.852;3.816;2024-03-23T14:29:07;13.20;99.90
22765;DHT22;11549;50.852;3.816;2024-03-23T14:31:36;13.20;99.90
22765;DHT22;11549;50.852;3.816;2024-03-23T14:34:03;13.30;99.90
22765;DHT22;11549;50.852;3.816;2024-03-23T14:36:30;13.30;99.90
22765;DHT22;11549;50.852;3.816;2024-03-23T14:38:56;13.30;99.90
22765;DHT22;11549;50.852;3.816;2024-03-23T14:41:24;13.40;99.90
22765;DHT22;11549;50.852;3.816;2024-03-23T14:43:50;13.40;99.90
22765;DHT22;11549;50.852;3.816;2024-03-23T14:46:20;13.40;99.90
22765;DHT22;11549;50.852;3.816;2024-03-23T14:48:48;13.30;99.90
22765;DHT22;11549;50.852;3.816;2024-03-23T14:51:15;13.10;99.90
22765;DHT22;11549;50.852;3.816;2024-03-23T14:53:45;13.00;99.90
22765;DHT22;11549;50.852;3.816;2024-03-23T14:56:14;12.70;99.90
22765;DHT22;11549;50.852;3.816;2024-03-23T14:58:41;12.60;99.90
22765;DHT22;11549;50.852;3.816;2024-03-23T15:01:09;12.30;99.90
22765;DHT22;11549;50.852;3.816;2024-03-23T15:03:36;12.20;99.90
22765;DHT22;11549;50.852;3.816;2024-03-23T15:06:06;12.10;99.90
22765;DHT22;11549;50.852;3.816;2024-03-23T15:08:35;12.20;99.90
22765;DHT22;11549;50.852;3.816;2024-03-23T15:11:02;12.20;99.90
22765;DHT22;11549;50.852;3.816;2024-03-23T15:13:31;12.10;99.90
22765;DHT22;11549;50.852;3.816;2024-03-23T15:15:58;12.40;99.90
22765;DHT22;11549;50.852;3.816;2024-03-23T15:18:25;12.50;99.90
22765;DHT22;11549;50.852;3.816;2024-03-23T15:20:54;12.70;99.90
22765;DHT22;11549;50.852;3.816;2024-03-23T15:23:22;12.70;99.90
22765;DHT22;11549;50.852;3.816;2024-03-23T15:25:54;12.60;99.90
22765;DHT22;11549;50.852;3.816;2024-03-23T15:28:20;12.60;99.90
22765;DHT22;11549;50.852;3.816;2024-03-23T15:30:48;12.60;99.90
22765;DHT22;11549;50.852;3.816;2024-03-23T15:33:14;12.70;99.90
22765;DHT22;11549;50.852;3.816;2024-03-23T15:35:41;12.70;99.90
22765;DHT22;11549;50.852;3.816;2024-03-23T15:38:07;12.50;99.90
22765;DHT22;11549;50.852;3.816;2024-03-23T15:40:37;12.40;99.90
22765;DHT22;11549;50.852;3.816;2024-03-23T15:43:03;12.40;99.90
22765;DHT22;11549;50.852;3.816;2024-03-23T15:45:31;12.20;99.90
22765;DHT22;11549;50.852;3.816;2024-03-23T15:47:58;12.20;99.90
22765;DHT22;11549;50.852;3.816;2024-03-23T15:50:26;12.20;99.90
22765;DHT22;11549;50.852;3.816;2024-03-23T15:52:52;12.20;99.90
22765;DHT22;11549;50.852;3.816;2024-03-23T15:55:21;12.00;99.90
22765;DHT22;11549;50.852;3.816;2024-03-23T15:57:49;12.00;99.90
22765;DHT22;11549;50.852;3.816;2024-03-23T16:00:17;11.90;99.90
22765;DHT22;11549;50.852;3.816;2024-03-23T16:02:45;11.70;99.90
22765;DHT22;11549;50.852;3.816;2024-03-23T16:05:12;11.70;99.90
22765;DHT22;11549;50.852;3.816;2024-03-23T16:07:39;11.70;99.90
22765;DHT22;11549;50.852;3.816;2024-03-23T16:10:07;11.60;99.90
22765;DHT22;11549;50.852;3.816;2024-03-23T16:12:35;11.60;99.90
22765;DHT22;11549;50.852;3.816;2024-03-23T16:15:04;11.60;99.90
22765;DHT22;11549;50.852;3.816;2024-03-23T16:17:31;11.70;99.90
22765;DHT22;11549;50.852;3.816;2024-03-23T16:20:02;11.60;99.90
22765;DHT22;11549;50.852;3.816;2024-03-23T16:22:29;11.60;99.90
22765;DHT22;11549;50.852;3.816;2024-03-23T16:24:56;11.70;99.90
22765;DHT22;11549;50.852;3.816;2024-03-23T16:27:23;11.70;99.90
22765;DHT22;11549;50.852;3.816;2024-03-23T16:29:50;11.70;99.90
22765;DHT22;11549;50.852;3.816;2024-03-23T16:32:18;11.60;99.90
22765;DHT22;11549;50.852;3.816;2024-03-23T16:34:45;11.60;99.90
22765;DHT22;11549;50.852;3.816;2024-03-23T16:37:11;11.60;99.90